Paynesville, MN

4:03 AM CST on November 29, 2014 (GMT -0600)
Sauk Centre | Change Station
CLOSE
Current Station
Airport
Location: Sauk Centre,
Elevation: 1240 ft
Nearby Weather Stations

Elev 1240 ft 45.71 °N, 94.93 °W | Updated 10 minutes ago

Partly Cloudy
Partly Cloudy
21 °F
Feels Like 14 °F
N
6
Wind Variable Wind from ESE

Today
High -- | Low -- °F
--% Chance of Precip.
Yesterday
High -- | Low -- °F
Precip. -- in
7:35 AM 4:38 PM
Waxing Crescent, 50% visible
Pressure 29.51 in
Visibility 7.0 miles
Clouds Overcast 800 ft
Windchill 14 °F
Dew Point 19 °F
Humidity 93%
Rainfall 0.00 in
Snow Depth Not available.
UV 0 out of 12
Pollen .10 out of 12
Air Quality Not available.
Flu Activity Not available.
METAR KD39 290953Z AUTO 12005KT 7SM OVC008 M06/M07 A2951 RMK AO2 T10601070

More Conditions Fewer Conditions

Pressure 29.51 in
Visibility 7.0 miles
Clouds Overcast 800 ft
Windchill 14 °F
Dew Point 19 °F
Humidity 93%
Rainfall 0.00 in
Snow Depth Not available.
UV 0 out of 12
Pollen .10 out of 12
Air Quality Not available.
Flu Activity Not available.
METAR KD39 290953Z AUTO 12005KT 7SM OVC008 M06/M07 A2951 RMK AO2 T10601070

More Conditions Fewer Conditions

10-Day Weather Forecast

Almanac

Astronomy

Nov. 29, 2014 Rise Set
Actual Time
Civil Twilight
Nautical Twilight
Astronomical Twilight
Moon
Length of Visible Light
Length of Day
Tomorrow will be .
, % of the Moon is Illuminated

Today's Extremes

State Highs State Lows

Community

WunderPhotos

Upload Photos

1,774,442 photos uploaded!

WunderBlogs® & News

Nearby

Air Quality

  Air Quality AQ Index Pollutant
Not available.

Snow Depth

Station Depth Elevation

Earthquake Activity

City Distance Mag. Time & Date
Minimum magnitude displayed is 2.5.

Coastal Water Temperatures

Place Temperature

Nearby Weather Stations